sensor_id;sensor_type;location;lat;lon;timestamp;P1;durP1;ratioP1;P2;durP2;ratioP2
21326;SDS011;10822;51.532;6.770;2023-07-20T00:01:58;6.25;;;3.75;;
21326;SDS011;10822;51.532;6.770;2023-07-20T00:04:24;5.05;;;3.30;;
21326;SDS011;10822;51.532;6.770;2023-07-20T00:06:50;4.97;;;3.20;;
21326;SDS011;10822;51.532;6.770;2023-07-20T00:09:16;6.07;;;3.35;;
21326;SDS011;10822;51.532;6.770;2023-07-20T00:11:47;6.82;;;3.50;;
21326;SDS011;10822;51.532;6.770;2023-07-20T00:14:14;8.45;;;3.50;;
21326;SDS011;10822;51.532;6.770;2023-07-20T00:16:40;5.80;;;3.25;;
21326;SDS011;10822;51.532;6.770;2023-07-20T00:19:06;5.93;;;3.38;;
21326;SDS011;10822;51.532;6.770;2023-07-20T00:21:33;5.75;;;3.38;;
21326;SDS011;10822;51.532;6.770;2023-07-20T00:23:59;5.85;;;3.88;;
21326;SDS011;10822;51.532;6.770;2023-07-20T00:26:25;4.60;;;3.60;;
21326;SDS011;10822;51.532;6.770;2023-07-20T00:28:51;5.47;;;3.88;;
21326;SDS011;10822;51.532;6.770;2023-07-20T00:31:17;5.80;;;3.33;;
21326;SDS011;10822;51.532;6.770;2023-07-20T00:33:43;6.13;;;3.63;;
21326;SDS011;10822;51.532;6.770;2023-07-20T00:36:09;5.78;;;3.72;;
21326;SDS011;10822;51.532;6.770;2023-07-20T00:38:35;6.10;;;3.50;;
21326;SDS011;10822;51.532;6.770;2023-07-20T00:41:01;7.28;;;3.60;;
21326;SDS011;10822;51.532;6.770;2023-07-20T00:43:27;6.72;;;3.78;;
21326;SDS011;10822;51.532;6.770;2023-07-20T00:45:53;5.80;;;3.58;;
21326;SDS011;10822;51.532;6.770;2023-07-20T00:48:19;7.75;;;4.00;;
21326;SDS011;10822;51.532;6.770;2023-07-20T00:50:45;5.47;;;3.40;;
21326;SDS011;10822;51.532;6.770;2023-07-20T00:53:12;5.60;;;3.38;;
21326;SDS011;10822;51.532;6.770;2023-07-20T00:55:38;6.30;;;3.47;;
21326;SDS011;10822;51.532;6.770;2023-07-20T00:58:04;4.93;;;3.22;;
21326;SDS011;10822;51.532;6.770;2023-07-20T01:00:30;6.97;;;3.75;;
21326;SDS011;10822;51.532;6.770;2023-07-20T01:02:56;6.75;;;3.55;;
21326;SDS011;10822;51.532;6.770;2023-07-20T01:05:23;5.60;;;3.38;;
21326;SDS011;10822;51.532;6.770;2023-07-20T01:07:54;5.35;;;3.80;;
21326;SDS011;10822;51.532;6.770;2023-07-20T01:10:34;5.22;;;3.78;;
21326;SDS011;10822;51.532;6.770;2023-07-20T01:13:02;5.30;;;3.78;;
21326;SDS011;10822;51.532;6.770;2023-07-20T01:15:29;6.85;;;3.95;;
21326;SDS011;10822;51.532;6.770;2023-07-20T01:17:55;4.95;;;3.00;;
21326;SDS011;10822;51.532;6.770;2023-07-20T01:20:21;8.73;;;3.88;;
21326;SDS011;10822;51.532;6.770;2023-07-20T01:23:10;4.88;;;3.42;;
21326;SDS011;10822;51.532;6.770;2023-07-20T01:31:15;4.82;;;3.95;;
21326;SDS011;10822;51.532;6.770;2023-07-20T01:33:41;6.05;;;3.72;;
21326;SDS011;10822;51.532;6.770;2023-07-20T01:36:07;8.68;;;4.28;;
21326;SDS011;10822;51.532;6.770;2023-07-20T01:38:34;6.13;;;3.38;;
21326;SDS011;10822;51.532;6.770;2023-07-20T01:41:00;6.05;;;4.00;;
21326;SDS011;10822;51.532;6.770;2023-07-20T01:43:27;7.00;;;3.95;;
21326;SDS011;10822;51.532;6.770;2023-07-20T01:45:53;4.35;;;3.45;;
21326;SDS011;10822;51.532;6.770;2023-07-20T01:48:19;5.45;;;3.78;;
21326;SDS011;10822;51.532;6.770;2023-07-20T01:50:45;5.35;;;3.72;;
21326;SDS011;10822;51.532;6.770;2023-07-20T01:53:11;4.72;;;3.50;;
21326;SDS011;10822;51.532;6.770;2023-07-20T01:55:37;8.70;;;4.28;;
21326;SDS011;10822;51.532;6.770;2023-07-20T01:58:03;7.05;;;4.68;;
21326;SDS011;10822;51.532;6.770;2023-07-20T02:00:29;5.95;;;3.72;;
21326;SDS011;10822;51.532;6.770;2023-07-20T02:02:55;7.47;;;4.45;;
21326;SDS011;10822;51.532;6.770;2023-07-20T02:05:21;6.75;;;4.30;;
21326;SDS011;10822;51.532;6.770;2023-07-20T02:07:47;7.45;;;4.35;;
21326;SDS011;10822;51.532;6.770;2023-07-20T02:10:13;6.65;;;4.38;;
21326;SDS011;10822;51.532;6.770;2023-07-20T02:12:39;6.53;;;4.68;;
21326;SDS011;10822;51.532;6.770;2023-07-20T02:15:05;7.03;;;4.63;;
21326;SDS011;10822;51.532;6.770;2023-07-20T02:17:31;5.75;;;4.40;;
21326;SDS011;10822;51.532;6.770;2023-07-20T02:19:57;7.82;;;4.57;;
21326;SDS011;10822;51.532;6.770;2023-07-20T02:22:23;7.90;;;5.00;;
21326;SDS011;10822;51.532;6.770;2023-07-20T02:24:49;7.32;;;5.07;;
21326;SDS011;10822;51.532;6.770;2023-07-20T02:27:16;7.43;;;5.28;;
21326;SDS011;10822;51.532;6.770;2023-07-20T02:29:42;8.57;;;5.07;;
21326;SDS011;10822;51.532;6.770;2023-07-20T02:32:08;7.63;;;5.57;;
21326;SDS011;10822;51.532;6.770;2023-07-20T02:34:35;8.30;;;5.47;;
21326;SDS011;10822;51.532;6.770;2023-07-20T02:37:01;9.45;;;6.07;;
21326;SDS011;10822;51.532;6.770;2023-07-20T02:39:27;9.05;;;6.07;;
21326;SDS011;10822;51.532;6.770;2023-07-20T02:41:54;8.02;;;5.60;;
21326;SDS011;10822;51.532;6.770;2023-07-20T02:44:20;8.90;;;6.05;;
21326;SDS011;10822;51.532;6.770;2023-07-20T02:46:46;9.98;;;5.72;;
21326;SDS011;10822;51.532;6.770;2023-07-20T02:49:12;9.02;;;6.30;;
21326;SDS011;10822;51.532;6.770;2023-07-20T02:51:38;7.30;;;6.10;;
21326;SDS011;10822;51.532;6.770;2023-07-20T02:54:04;8.32;;;5.80;;
21326;SDS011;10822;51.532;6.770;2023-07-20T02:56:30;10.25;;;6.40;;
21326;SDS011;10822;51.532;6.770;2023-07-20T02:58:56;11.35;;;6.43;;
21326;SDS011;10822;51.532;6.770;2023-07-20T03:01:22;9.48;;;6.90;;
21326;SDS011;10822;51.532;6.770;2023-07-20T03:03:48;9.88;;;6.30;;
21326;SDS011;10822;51.532;6.770;2023-07-20T03:06:15;9.23;;;6.88;;
21326;SDS011;10822;51.532;6.770;2023-07-20T03:08:41;7.95;;;6.18;;
21326;SDS011;10822;51.532;6.770;2023-07-20T03:11:12;9.52;;;6.93;;
21326;SDS011;10822;51.532;6.770;2023-07-20T03:13:38;8.70;;;6.72;;
21326;SDS011;10822;51.532;6.770;2023-07-20T03:16:04;10.88;;;7.30;;
21326;SDS011;10822;51.532;6.770;2023-07-20T03:18:29;9.50;;;7.07;;
21326;SDS011;10822;51.532;6.770;2023-07-20T03:20:55;10.23;;;7.13;;
21326;SDS011;10822;51.532;6.770;2023-07-20T03:23:21;10.98;;;8.07;;
21326;SDS011;10822;51.532;6.770;2023-07-20T03:25:47;10.82;;;7.95;;
21326;SDS011;10822;51.532;6.770;2023-07-20T03:28:13;12.40;;;9.00;;
21326;SDS011;10822;51.532;6.770;2023-07-20T03:30:40;11.77;;;8.82;;
21326;SDS011;10822;51.532;6.770;2023-07-20T03:33:06;10.07;;;8.10;;
21326;SDS011;10822;51.532;6.770;2023-07-20T03:35:32;10.57;;;8.50;;
21326;SDS011;10822;51.532;6.770;2023-07-20T03:37:58;11.57;;;8.35;;
21326;SDS011;10822;51.532;6.770;2023-07-20T03:40:24;10.60;;;8.40;;
21326;SDS011;10822;51.532;6.770;2023-07-20T03:42:50;13.57;;;9.05;;
21326;SDS011;10822;51.532;6.770;2023-07-20T03:45:16;13.23;;;8.98;;
21326;SDS011;10822;51.532;6.770;2023-07-20T03:47:42;10.73;;;8.55;;
21326;SDS011;10822;51.532;6.770;2023-07-20T03:50:09;13.18;;;9.20;;
21326;SDS011;10822;51.532;6.770;2023-07-20T03:52:35;12.63;;;9.23;;
21326;SDS011;10822;51.532;6.770;2023-07-20T03:55:01;12.30;;;9.80;;
21326;SDS011;10822;51.532;6.770;2023-07-20T03:57:27;11.52;;;9.52;;
21326;SDS011;10822;51.532;6.770;2023-07-20T03:59:53;10.80;;;9.15;;
21326;SDS011;10822;51.532;6.770;2023-07-20T04:02:20;12.57;;;9.55;;
21326;SDS011;10822;51.532;6.770;2023-07-20T04:04:46;13.40;;;10.02;;
21326;SDS011;10822;51.532;6.770;2023-07-20T04:07:12;11.98;;;9.55;;
21326;SDS011;10822;51.532;6.770;2023-07-20T04:09:38;13.02;;;9.80;;
21326;SDS011;10822;51.532;6.770;2023-07-20T04:12:05;13.50;;;9.85;;
21326;SDS011;10822;51.532;6.770;2023-07-20T04:14:31;10.45;;;8.93;;
21326;SDS011;10822;51.532;6.770;2023-07-20T04:16:57;13.00;;;9.80;;
21326;SDS011;10822;51.532;6.770;2023-07-20T04:19:25;12.77;;;10.05;;
21326;SDS011;10822;51.532;6.770;2023-07-20T04:21:51;11.93;;;9.55;;
21326;SDS011;10822;51.532;6.770;2023-07-20T04:24:17;12.30;;;9.38;;
21326;SDS011;10822;51.532;6.770;2023-07-20T04:26:43;13.32;;;9.55;;
21326;SDS011;10822;51.532;6.770;2023-07-20T04:29:09;12.43;;;8.93;;
21326;SDS011;10822;51.532;6.770;2023-07-20T04:31:35;13.77;;;9.40;;
21326;SDS011;10822;51.532;6.770;2023-07-20T04:34:01;12.63;;;8.73;;
21326;SDS011;10822;51.532;6.770;2023-07-20T04:36:27;10.35;;;8.55;;
21326;SDS011;10822;51.532;6.770;2023-07-20T04:38:53;10.85;;;9.30;;
21326;SDS011;10822;51.532;6.770;2023-07-20T04:41:19;10.30;;;8.10;;
21326;SDS011;10822;51.532;6.770;2023-07-20T04:43:45;13.05;;;8.90;;
21326;SDS011;10822;51.532;6.770;2023-07-20T04:46:11;10.48;;;8.20;;
21326;SDS011;10822;51.532;6.770;2023-07-20T04:48:37;11.23;;;8.52;;
21326;SDS011;10822;51.532;6.770;2023-07-20T04:51:05;11.20;;;8.15;;
21326;SDS011;10822;51.532;6.770;2023-07-20T04:53:31;10.20;;;7.70;;
21326;SDS011;10822;51.532;6.770;2023-07-20T04:55:57;9.88;;;7.90;;
21326;SDS011;10822;51.532;6.770;2023-07-20T04:58:23;10.73;;;7.80;;
21326;SDS011;10822;51.532;6.770;2023-07-20T05:00:50;9.32;;;7.93;;
21326;SDS011;10822;51.532;6.770;2023-07-20T05:03:16;9.80;;;7.45;;
21326;SDS011;10822;51.532;6.770;2023-07-20T05:05:42;9.18;;;6.93;;
21326;SDS011;10822;51.532;6.770;2023-07-20T05:08:08;8.55;;;7.20;;
21326;SDS011;10822;51.532;6.770;2023-07-20T05:10:34;7.38;;;6.68;;
21326;SDS011;10822;51.532;6.770;2023-07-20T05:13:00;7.93;;;6.30;;
21326;SDS011;10822;51.532;6.770;2023-07-20T05:15:26;6.43;;;5.07;;
21326;SDS011;10822;51.532;6.770;2023-07-20T05:17:52;5.95;;;5.10;;
21326;SDS011;10822;51.532;6.770;2023-07-20T05:20:18;4.88;;;4.38;;
21326;SDS011;10822;51.532;6.770;2023-07-20T05:22:45;6.07;;;4.68;;
21326;SDS011;10822;51.532;6.770;2023-07-20T05:25:11;5.57;;;4.40;;
21326;SDS011;10822;51.532;6.770;2023-07-20T05:27:38;4.60;;;4.20;;
21326;SDS011;10822;51.532;6.770;2023-07-20T05:30:05;5.32;;;4.57;;
21326;SDS011;10822;51.532;6.770;2023-07-20T05:32:32;5.93;;;5.00;;
21326;SDS011;10822;51.532;6.770;2023-07-20T05:34:58;5.85;;;4.85;;
21326;SDS011;10822;51.532;6.770;2023-07-20T05:37:24;6.15;;;4.60;;
21326;SDS011;10822;51.532;6.770;2023-07-20T05:39:50;5.03;;;4.53;;
21326;SDS011;10822;51.532;6.770;2023-07-20T05:42:16;5.35;;;4.85;;
21326;SDS011;10822;51.532;6.770;2023-07-20T05:44:42;5.65;;;4.95;;
21326;SDS011;10822;51.532;6.770;2023-07-20T05:47:08;4.60;;;4.13;;
21326;SDS011;10822;51.532;6.770;2023-07-20T05:49:34;5.65;;;4.38;;
21326;SDS011;10822;51.532;6.770;2023-07-20T05:52:00;5.13;;;4.45;;
21326;SDS011;10822;51.532;6.770;2023-07-20T05:54:27;4.88;;;3.50;;
21326;SDS011;10822;51.532;6.770;2023-07-20T05:56:53;4.32;;;3.63;;
21326;SDS011;10822;51.532;6.770;2023-07-20T05:59:19;4.63;;;3.75;;
21326;SDS011;10822;51.532;6.770;2023-07-20T06:01:45;3.97;;;3.45;;
21326;SDS011;10822;51.532;6.770;2023-07-20T06:04:15;4.53;;;3.17;;
21326;SDS011;10822;51.532;6.770;2023-07-20T06:06:42;3.95;;;3.05;;
21326;SDS011;10822;51.532;6.770;2023-07-20T06:09:08;3.33;;;2.85;;
21326;SDS011;10822;51.532;6.770;2023-07-20T06:11:37;3.20;;;2.90;;
21326;SDS011;10822;51.532;6.770;2023-07-20T06:14:03;3.05;;;2.50;;
21326;SDS011;10822;51.532;6.770;2023-07-20T06:16:29;3.45;;;2.42;;
21326;SDS011;10822;51.532;6.770;2023-07-20T06:18:55;4.03;;;2.80;;
21326;SDS011;10822;51.532;6.770;2023-07-20T06:21:21;3.22;;;2.38;;
21326;SDS011;10822;51.532;6.770;2023-07-20T06:23:47;2.58;;;2.38;;
21326;SDS011;10822;51.532;6.770;2023-07-20T06:26:13;3.58;;;2.78;;
21326;SDS011;10822;51.532;6.770;2023-07-20T06:28:40;2.33;;;2.00;;
21326;SDS011;10822;51.532;6.770;2023-07-20T06:31:06;2.17;;;1.98;;
21326;SDS011;10822;51.532;6.770;2023-07-20T06:33:32;2.13;;;1.48;;
21326;SDS011;10822;51.532;6.770;2023-07-20T06:35:59;2.03;;;1.83;;
21326;SDS011;10822;51.532;6.770;2023-07-20T06:38:25;1.83;;;1.60;;
21326;SDS011;10822;51.532;6.770;2023-07-20T06:40:51;2.50;;;1.50;;
21326;SDS011;10822;51.532;6.770;2023-07-20T06:43:18;1.55;;;1.45;;
21326;SDS011;10822;51.532;6.770;2023-07-20T06:45:44;3.92;;;1.50;;
21326;SDS011;10822;51.532;6.770;2023-07-20T06:48:10;2.50;;;1.42;;
21326;SDS011;10822;51.532;6.770;2023-07-20T06:50:35;1.52;;;1.23;;
21326;SDS011;10822;51.532;6.770;2023-07-20T06:53:01;2.00;;;1.38;;
21326;SDS011;10822;51.532;6.770;2023-07-20T06:55:30;1.42;;;1.25;;
21326;SDS011;10822;51.532;6.770;2023-07-20T06:57:56;2.22;;;1.38;;
21326;SDS011;10822;51.532;6.770;2023-07-20T07:00:22;1.50;;;1.10;;
21326;SDS011;10822;51.532;6.770;2023-07-20T07:02:48;3.10;;;1.50;;
21326;SDS011;10822;51.532;6.770;2023-07-20T07:05:14;2.13;;;1.25;;
21326;SDS011;10822;51.532;6.770;2023-07-20T07:07:40;2.03;;;1.50;;
21326;SDS011;10822;51.532;6.770;2023-07-20T07:10:07;1.40;;;1.30;;
21326;SDS011;10822;51.532;6.770;2023-07-20T07:12:33;1.55;;;1.30;;
21326;SDS011;10822;51.532;6.770;2023-07-20T07:15:00;1.38;;;1.27;;
21326;SDS011;10822;51.532;6.770;2023-07-20T07:17:26;2.03;;;1.42;;
21326;SDS011;10822;51.532;6.770;2023-07-20T07:19:52;1.63;;;1.20;;
21326;SDS011;10822;51.532;6.770;2023-07-20T07:22:20;3.28;;;1.30;;
21326;SDS011;10822;51.532;6.770;2023-07-20T07:24:46;2.13;;;1.40;;
21326;SDS011;10822;51.532;6.770;2023-07-20T07:27:12;1.65;;;1.50;;
21326;SDS011;10822;51.532;6.770;2023-07-20T07:29:41;1.35;;;1.25;;
21326;SDS011;10822;51.532;6.770;2023-07-20T07:32:09;1.50;;;1.15;;
21326;SDS011;10822;51.532;6.770;2023-07-20T07:34:36;1.60;;;1.25;;
21326;SDS011;10822;51.532;6.770;2023-07-20T07:37:02;2.42;;;1.30;;
21326;SDS011;10822;51.532;6.770;2023-07-20T07:39:28;1.48;;;1.38;;
21326;SDS011;10822;51.532;6.770;2023-07-20T07:41:54;1.75;;;1.50;;
21326;SDS011;10822;51.532;6.770;2023-07-20T07:44:20;0.70;;;0.70;;
21326;SDS011;10822;51.532;6.770;2023-07-20T07:46:46;0.88;;;0.88;;
21326;SDS011;10822;51.532;6.770;2023-07-20T07:49:13;0.80;;;0.75;;
21326;SDS011;10822;51.532;6.770;2023-07-20T07:51:39;2.33;;;0.77;;
21326;SDS011;10822;51.532;6.770;2023-07-20T07:54:05;0.73;;;0.60;;
21326;SDS011;10822;51.532;6.770;2023-07-20T07:56:31;0.77;;;0.70;;
21326;SDS011;10822;51.532;6.770;2023-07-20T07:58:57;1.70;;;0.70;;
21326;SDS011;10822;51.532;6.770;2023-07-20T08:01:23;1.55;;;1.00;;
21326;SDS011;10822;51.532;6.770;2023-07-20T08:03:49;1.15;;;0.80;;
21326;SDS011;10822;51.532;6.770;2023-07-20T08:06:16;0.98;;;0.88;;
21326;SDS011;10822;51.532;6.770;2023-07-20T08:08:42;1.35;;;0.77;;
21326;SDS011;10822;51.532;6.770;2023-07-20T08:11:08;1.23;;;0.70;;
21326;SDS011;10822;51.532;6.770;2023-07-20T08:13:34;1.25;;;0.85;;
21326;SDS011;10822;51.532;6.770;2023-07-20T08:16:01;1.23;;;1.00;;
21326;SDS011;10822;51.532;6.770;2023-07-20T08:18:27;1.17;;;0.60;;
21326;SDS011;10822;51.532;6.770;2023-07-20T08:20:53;1.95;;;0.77;;
21326;SDS011;10822;51.532;6.770;2023-07-20T08:23:19;1.83;;;1.10;;
21326;SDS011;10822;51.532;6.770;2023-07-20T08:25:46;1.00;;;0.90;;
21326;SDS011;10822;51.532;6.770;2023-07-20T08:28:14;1.10;;;1.00;;
21326;SDS011;10822;51.532;6.770;2023-07-20T08:30:40;1.90;;;1.30;;
21326;SDS011;10822;51.532;6.770;2023-07-20T08:33:07;1.90;;;1.00;;
21326;SDS011;10822;51.532;6.770;2023-07-20T08:35:33;1.73;;;1.00;;
21326;SDS011;10822;51.532;6.770;2023-07-20T08:37:59;0.75;;;0.75;;
21326;SDS011;10822;51.532;6.770;2023-07-20T08:40:25;0.70;;;0.70;;
21326;SDS011;10822;51.532;6.770;2023-07-20T08:42:52;0.95;;;0.80;;
21326;SDS011;10822;51.532;6.770;2023-07-20T08:45:19;1.25;;;0.80;;
21326;SDS011;10822;51.532;6.770;2023-07-20T08:47:45;2.55;;;0.90;;
21326;SDS011;10822;51.532;6.770;2023-07-20T08:50:11;0.98;;;0.70;;
21326;SDS011;10822;51.532;6.770;2023-07-20T08:52:38;2.05;;;0.70;;
21326;SDS011;10822;51.532;6.770;2023-07-20T08:55:04;0.73;;;0.70;;
21326;SDS011;10822;51.532;6.770;2023-07-20T08:57:31;1.05;;;0.50;;
21326;SDS011;10822;51.532;6.770;2023-07-20T08:59:58;1.00;;;0.57;;
21326;SDS011;10822;51.532;6.770;2023-07-20T09:02:24;0.93;;;0.60;;
21326;SDS011;10822;51.532;6.770;2023-07-20T09:04:51;0.38;;;0.22;;
21326;SDS011;10822;51.532;6.770;2023-07-20T09:07:17;0.38;;;0.38;;
21326;SDS011;10822;51.532;6.770;2023-07-20T09:09:43;0.40;;;0.40;;
21326;SDS011;10822;51.532;6.770;2023-07-20T09:12:16;1.58;;;0.47;;
21326;SDS011;10822;51.532;6.770;2023-07-20T09:17:07;1.20;;;0.50;;
21326;SDS011;10822;51.532;6.770;2023-07-20T09:19:38;1.15;;;0.77;;
21326;SDS011;10822;51.532;6.770;2023-07-20T09:22:05;0.63;;;0.52;;
21326;SDS011;10822;51.532;6.770;2023-07-20T09:24:31;1.92;;;0.70;;
21326;SDS011;10822;51.532;6.770;2023-07-20T09:26:57;0.80;;;0.70;;
21326;SDS011;10822;51.532;6.770;2023-07-20T09:29:28;0.73;;;0.60;;
21326;SDS011;10822;51.532;6.770;2023-07-20T09:32:04;0.70;;;0.68;;
21326;SDS011;10822;51.532;6.770;2023-07-20T09:34:31;0.65;;;0.65;;
21326;SDS011;10822;51.532;6.770;2023-07-20T09:37:00;2.85;;;0.90;;
21326;SDS011;10822;51.532;6.770;2023-07-20T09:39:26;2.10;;;0.70;;
21326;SDS011;10822;51.532;6.770;2023-07-20T09:41:52;0.52;;;0.50;;
21326;SDS011;10822;51.532;6.770;2023-07-20T09:44:19;0.85;;;0.80;;
21326;SDS011;10822;51.532;6.770;2023-07-20T09:46:48;0.70;;;0.70;;
21326;SDS011;10822;51.532;6.770;2023-07-20T09:49:16;0.65;;;0.60;;
21326;SDS011;10822;51.532;6.770;2023-07-20T09:51:42;1.00;;;0.52;;
21326;SDS011;10822;51.532;6.770;2023-07-20T09:54:08;0.90;;;0.63;;
21326;SDS011;10822;51.532;6.770;2023-07-20T09:56:35;1.63;;;1.10;;
21326;SDS011;10822;51.532;6.770;2023-07-20T09:59:02;2.35;;;1.10;;
21326;SDS011;10822;51.532;6.770;2023-07-20T10:01:28;1.60;;;1.25;;
21326;SDS011;10822;51.532;6.770;2023-07-20T10:03:55;0.52;;;0.50;;
21326;SDS011;10822;51.532;6.770;2023-07-20T10:06:23;0.55;;;0.55;;
21326;SDS011;10822;51.532;6.770;2023-07-20T10:08:52;0.73;;;0.50;;
21326;SDS011;10822;51.532;6.770;2023-07-20T10:11:18;1.08;;;0.60;;
21326;SDS011;10822;51.532;6.770;2023-07-20T10:13:44;1.75;;;0.70;;
21326;SDS011;10822;51.532;6.770;2023-07-20T10:16:19;0.50;;;0.40;;
21326;SDS011;10822;51.532;6.770;2023-07-20T10:21:33;0.77;;;0.40;;
21326;SDS011;10822;51.532;6.770;2023-07-20T10:23:59;1.50;;;0.55;;
21326;SDS011;10822;51.532;6.770;2023-07-20T10:26:26;2.22;;;0.50;;
21326;SDS011;10822;51.532;6.770;2023-07-20T10:28:52;0.40;;;0.40;;
21326;SDS011;10822;51.532;6.770;2023-07-20T10:31:18;0.32;;;0.22;;
21326;SDS011;10822;51.532;6.770;2023-07-20T10:33:45;1.20;;;0.50;;
21326;SDS011;10822;51.532;6.770;2023-07-20T10:36:11;1.48;;;0.47;;
21326;SDS011;10822;51.532;6.770;2023-07-20T10:38:38;0.95;;;0.35;;
21326;SDS011;10822;51.532;6.770;2023-07-20T10:41:15;0.85;;;0.50;;
21326;SDS011;10822;51.532;6.770;2023-07-20T10:43:44;0.43;;;0.30;;
21326;SDS011;10822;51.532;6.770;2023-07-20T10:46:11;1.38;;;0.50;;
21326;SDS011;10822;51.532;6.770;2023-07-20T10:48:58;1.33;;;0.40;;
21326;SDS011;10822;51.532;6.770;2023-07-20T10:51:23;0.52;;;0.40;;
21326;SDS011;10822;51.532;6.770;2023-07-20T10:53:49;0.77;;;0.40;;
21326;SDS011;10822;51.532;6.770;2023-07-20T10:56:19;0.93;;;0.57;;
21326;SDS011;10822;51.532;6.770;2023-07-20T10:58:45;1.20;;;0.82;;
21326;SDS011;10822;51.532;6.770;2023-07-20T11:01:17;0.60;;;0.60;;
21326;SDS011;10822;51.532;6.770;2023-07-20T11:03:43;2.25;;;1.10;;
21326;SDS011;10822;51.532;6.770;2023-07-20T11:09:04;1.92;;;0.50;;
21326;SDS011;10822;51.532;6.770;2023-07-20T11:11:30;0.95;;;0.35;;
21326;SDS011;10822;51.532;6.770;2023-07-20T11:13:57;0.57;;;0.55;;
21326;SDS011;10822;51.532;6.770;2023-07-20T11:19:23;0.50;;;0.40;;
21326;SDS011;10822;51.532;6.770;2023-07-20T11:21:50;0.77;;;0.57;;
21326;SDS011;10822;51.532;6.770;2023-07-20T11:24:17;0.55;;;0.50;;
21326;SDS011;10822;51.532;6.770;2023-07-20T11:26:47;0.68;;;0.52;;
21326;SDS011;10822;51.532;6.770;2023-07-20T11:29:13;0.43;;;0.40;;
21326;SDS011;10822;51.532;6.770;2023-07-20T11:31:40;0.60;;;0.50;;
21326;SDS011;10822;51.532;6.770;2023-07-20T11:34:18;0.50;;;0.43;;
21326;SDS011;10822;51.532;6.770;2023-07-20T11:36:45;0.40;;;0.40;;
21326;SDS011;10822;51.532;6.770;2023-07-20T11:39:15;0.60;;;0.50;;
21326;SDS011;10822;51.532;6.770;2023-07-20T11:41:48;0.63;;;0.50;;
21326;SDS011;10822;51.532;6.770;2023-07-20T11:44:18;1.42;;;0.50;;
21326;SDS011;10822;51.532;6.770;2023-07-20T11:46:44;0.95;;;0.50;;
21326;SDS011;10822;51.532;6.770;2023-07-20T11:49:10;1.10;;;0.50;;
21326;SDS011;10822;51.532;6.770;2023-07-20T11:51:37;0.43;;;0.40;;
21326;SDS011;10822;51.532;6.770;2023-07-20T11:54:04;0.52;;;0.52;;
21326;SDS011;10822;51.532;6.770;2023-07-20T11:56:30;0.68;;;0.50;;
21326;SDS011;10822;51.532;6.770;2023-07-20T11:58:57;0.80;;;0.57;;
21326;SDS011;10822;51.532;6.770;2023-07-20T12:01:25;0.30;;;0.30;;
21326;SDS011;10822;51.532;6.770;2023-07-20T12:03:54;1.10;;;0.70;;
21326;SDS011;10822;51.532;6.770;2023-07-20T12:06:22;0.85;;;0.30;;
21326;SDS011;10822;51.532;6.770;2023-07-20T12:08:49;0.60;;;0.60;;
21326;SDS011;10822;51.532;6.770;2023-07-20T12:11:29;0.63;;;0.40;;
21326;SDS011;10822;51.532;6.770;2023-07-20T12:13:57;0.77;;;0.50;;
21326;SDS011;10822;51.532;6.770;2023-07-20T12:16:26;1.63;;;0.70;;
21326;SDS011;10822;51.532;6.770;2023-07-20T12:18:58;0.65;;;0.50;;
21326;SDS011;10822;51.532;6.770;2023-07-20T12:21:24;2.75;;;0.60;;
21326;SDS011;10822;51.532;6.770;2023-07-20T12:23:50;0.50;;;0.50;;
21326;SDS011;10822;51.532;6.770;2023-07-20T12:26:16;0.73;;;0.60;;
21326;SDS011;10822;51.532;6.770;2023-07-20T12:28:42;0.70;;;0.38;;
21326;SDS011;10822;51.532;6.770;2023-07-20T12:31:08;0.40;;;0.40;;
21326;SDS011;10822;51.532;6.770;2023-07-20T12:33:35;0.60;;;0.45;;
21326;SDS011;10822;51.532;6.770;2023-07-20T12:36:01;0.60;;;0.30;;
21326;SDS011;10822;51.532;6.770;2023-07-20T12:38:28;0.63;;;0.63;;
21326;SDS011;10822;51.532;6.770;2023-07-20T12:40:55;0.77;;;0.55;;
21326;SDS011;10822;51.532;6.770;2023-07-20T12:43:21;1.05;;;0.60;;
21326;SDS011;10822;51.532;6.770;2023-07-20T12:45:47;0.85;;;0.40;;
21326;SDS011;10822;51.532;6.770;2023-07-20T12:48:13;0.60;;;0.50;;
21326;SDS011;10822;51.532;6.770;2023-07-20T12:50:39;0.52;;;0.40;;
21326;SDS011;10822;51.532;6.770;2023-07-20T12:53:05;1.10;;;0.73;;
21326;SDS011;10822;51.532;6.770;2023-07-20T12:55:31;3.45;;;3.10;;
21326;SDS011;10822;51.532;6.770;2023-07-20T12:57:57;2.13;;;0.70;;
21326;SDS011;10822;51.532;6.770;2023-07-20T13:00:23;0.50;;;0.50;;
21326;SDS011;10822;51.532;6.770;2023-07-20T13:02:50;1.55;;;0.60;;
21326;SDS011;10822;51.532;6.770;2023-07-20T13:05:16;0.77;;;0.38;;
21326;SDS011;10822;51.532;6.770;2023-07-20T13:07:42;0.70;;;0.30;;
21326;SDS011;10822;51.532;6.770;2023-07-20T13:10:08;1.30;;;0.50;;
21326;SDS011;10822;51.532;6.770;2023-07-20T13:12:35;1.05;;;0.50;;
21326;SDS011;10822;51.532;6.770;2023-07-20T13:15:05;1.20;;;0.80;;
21326;SDS011;10822;51.532;6.770;2023-07-20T13:17:32;0.70;;;0.60;;
21326;SDS011;10822;51.532;6.770;2023-07-20T13:19:58;0.60;;;0.60;;
21326;SDS011;10822;51.532;6.770;2023-07-20T13:22:24;0.88;;;0.60;;
21326;SDS011;10822;51.532;6.770;2023-07-20T13:24:52;1.00;;;0.57;;
21326;SDS011;10822;51.532;6.770;2023-07-20T13:27:18;0.60;;;0.60;;
21326;SDS011;10822;51.532;6.770;2023-07-20T13:29:44;1.30;;;0.60;;
21326;SDS011;10822;51.532;6.770;2023-07-20T13:32:14;0.40;;;0.40;;
21326;SDS011;10822;51.532;6.770;2023-07-20T13:34:41;0.75;;;0.40;;
21326;SDS011;10822;51.532;6.770;2023-07-20T13:37:07;3.85;;;0.70;;
21326;SDS011;10822;51.532;6.770;2023-07-20T13:39:33;0.73;;;0.52;;
21326;SDS011;10822;51.532;6.770;2023-07-20T13:41:59;0.50;;;0.50;;
21326;SDS011;10822;51.532;6.770;2023-07-20T13:44:30;1.45;;;0.45;;
21326;SDS011;10822;51.532;6.770;2023-07-20T13:46:56;1.30;;;0.70;;
21326;SDS011;10822;51.532;6.770;2023-07-20T13:49:22;1.70;;;0.60;;
21326;SDS011;10822;51.532;6.770;2023-07-20T13:51:48;0.60;;;0.43;;
21326;SDS011;10822;51.532;6.770;2023-07-20T13:54:14;0.50;;;0.45;;
21326;SDS011;10822;51.532;6.770;2023-07-20T13:56:40;0.50;;;0.50;;
21326;SDS011;10822;51.532;6.770;2023-07-20T13:59:06;0.70;;;0.45;;
21326;SDS011;10822;51.532;6.770;2023-07-20T14:01:32;0.73;;;0.73;;
21326;SDS011;10822;51.532;6.770;2023-07-20T14:03:59;1.10;;;0.57;;
21326;SDS011;10822;51.532;6.770;2023-07-20T14:06:26;1.65;;;1.10;;
21326;SDS011;10822;51.532;6.770;2023-07-20T14:08:52;0.70;;;0.50;;
21326;SDS011;10822;51.532;6.770;2023-07-20T14:11:18;0.75;;;0.52;;
21326;SDS011;10822;51.532;6.770;2023-07-20T14:13:45;1.13;;;0.73;;
21326;SDS011;10822;51.532;6.770;2023-07-20T14:16:11;0.55;;;0.40;;
21326;SDS011;10822;51.532;6.770;2023-07-20T14:18:37;0.50;;;0.50;;
21326;SDS011;10822;51.532;6.770;2023-07-20T14:21:03;0.50;;;0.50;;
21326;SDS011;10822;51.532;6.770;2023-07-20T14:23:31;0.75;;;0.40;;
21326;SDS011;10822;51.532;6.770;2023-07-20T14:25:57;0.50;;;0.40;;
21326;SDS011;10822;51.532;6.770;2023-07-20T14:28:24;0.57;;;0.57;;
21326;SDS011;10822;51.532;6.770;2023-07-20T14:30:50;1.13;;;0.70;;
21326;SDS011;10822;51.532;6.770;2023-07-20T14:33:16;0.50;;;0.50;;
21326;SDS011;10822;51.532;6.770;2023-07-20T14:35:42;0.90;;;0.60;;
21326;SDS011;10822;51.532;6.770;2023-07-20T14:38:08;1.70;;;0.52;;
21326;SDS011;10822;51.532;6.770;2023-07-20T14:40:35;1.17;;;0.60;;
21326;SDS011;10822;51.532;6.770;2023-07-20T14:43:00;0.63;;;0.50;;
21326;SDS011;10822;51.532;6.770;2023-07-20T14:45:27;1.05;;;0.57;;
21326;SDS011;10822;51.532;6.770;2023-07-20T14:47:53;0.80;;;0.47;;
21326;SDS011;10822;51.532;6.770;2023-07-20T14:50:20;0.77;;;0.40;;
21326;SDS011;10822;51.532;6.770;2023-07-20T14:52:46;0.55;;;0.50;;
21326;SDS011;10822;51.532;6.770;2023-07-20T14:55:12;1.88;;;0.60;;
21326;SDS011;10822;51.532;6.770;2023-07-20T14:57:38;1.25;;;0.77;;
21326;SDS011;10822;51.532;6.770;2023-07-20T15:00:04;1.33;;;0.60;;